aviador You're here:

EPKT Decoded Metar

KATOWICE in POLAND
Report Time2017-11-25 03:30:00
UTC Time2017-11-25 03:49:38
Flight Rules mvfr MVFR
Wind190° at 04 kt
W.Decomp.*RWY 27: 0.4 kt HW 4 kt LCW
W.Rank190° ranks 24
Current wind is below 190° avg. (5.7)
Visibility7000 m
Phenomena:N/A
Clouds:N/A
Expected CloudBase > 800 ft AGL from Temp-Dew spread
CeilingNone
Temp05°C (ISA -8)
Dew Point03°C (87% RH)
AAT2.1°C
QNH1014 hPa
Density Alt23 ft
Elevation932 ft
Report Wrong Elevation
Raw Report
EPKT 250330Z 19004KT 7000 NSC 05/03 Q1014=

Extra information for EPKT:More info

Metar Taf Metar & Taf Last 4 Metars F.Rules Stats Wind Profile Meteogram Temp Stats Airport Information Weather charts Add Link Nearby VenuesMetar ALERT Operation Metar Decoded Social comments